createdAt,value
2023-01-31T00:01:27.566Z,2.60
2023-01-31T00:03:56.016Z,2.63
2023-01-31T00:06:26.245Z,2.54
2023-01-31T00:08:54.928Z,2.59
2023-01-31T00:11:24.677Z,2.62
2023-01-31T00:13:52.995Z,2.66
2023-01-31T00:16:21.784Z,2.57
2023-01-31T00:18:49.525Z,2.62
2023-01-31T00:21:19.406Z,2.63
2023-01-31T00:23:49.711Z,2.61
2023-01-31T00:26:19.462Z,2.59
2023-01-31T00:28:48.807Z,2.69
2023-01-31T00:31:17.585Z,2.64
2023-01-31T00:33:46.648Z,2.63
2023-01-31T00:36:16.652Z,2.68
2023-01-31T00:38:44.711Z,2.64
2023-01-31T00:41:13.552Z,2.55
2023-01-31T00:43:41.252Z,2.55
2023-01-31T00:46:08.794Z,2.65
2023-01-31T00:48:36.283Z,2.59
2023-01-31T00:51:04.102Z,2.58
2023-01-31T00:53:31.581Z,2.53
2023-01-31T00:56:04.066Z,2.55
2023-01-31T00:58:32.917Z,2.56
2023-01-31T01:01:07.404Z,2.71
2023-01-31T01:03:35.412Z,2.66
2023-01-31T01:06:03.316Z,2.60
2023-01-31T01:08:31.370Z,2.60
2023-01-31T01:11:05.739Z,2.58
2023-01-31T01:13:35.321Z,2.59
2023-01-31T01:16:06.275Z,2.59
2023-01-31T01:18:35.371Z,2.60
2023-01-31T01:21:07.917Z,2.62
2023-01-31T01:23:35.477Z,2.74
2023-01-31T01:26:02.971Z,2.53
2023-01-31T01:28:34.818Z,2.50
2023-01-31T01:31:07.540Z,2.54
2023-01-31T01:33:35.361Z,2.60
2023-01-31T01:36:03.182Z,2.59
2023-01-31T01:38:31.330Z,2.51
2023-01-31T01:40:58.868Z,2.48
2023-01-31T01:43:40.884Z,2.44
2023-01-31T01:46:11.848Z,2.42
2023-01-31T01:48:40.093Z,2.47
2023-01-31T01:51:08.585Z,2.46
2023-01-31T01:53:40.377Z,2.53
2023-01-31T01:56:10.951Z,2.49
2023-01-31T01:58:44.077Z,2.53
2023-01-31T02:01:16.715Z,2.56
2023-01-31T02:03:46.315Z,2.46
2023-01-31T02:06:14.128Z,2.53
2023-01-31T02:08:43.349Z,2.41
2023-01-31T02:11:18.669Z,2.38
2023-01-31T02:13:47.766Z,2.37
2023-01-31T02:16:16.750Z,2.40
2023-01-31T02:18:46.422Z,2.41
2023-01-31T02:21:58.416Z,2.40
2023-01-31T02:24:59.066Z,2.40
2023-01-31T02:27:56.817Z,2.46
2023-01-31T02:30:59.293Z,2.49
2023-01-31T02:33:36.896Z,2.43
2023-01-31T02:36:12.637Z,2.42
2023-01-31T02:39:00.183Z,2.57
2023-01-31T02:41:33.519Z,2.46
2023-01-31T02:44:29.665Z,2.59
2023-01-31T02:47:03.967Z,2.53
2023-01-31T02:49:40.591Z,2.49
2023-01-31T02:52:17.947Z,2.63
2023-01-31T02:55:12.270Z,2.48
2023-01-31T02:57:40.322Z,2.57
2023-01-31T03:00:10.938Z,2.47
2023-01-31T03:02:38.569Z,2.42
2023-01-31T03:05:07.933Z,2.67
2023-01-31T03:07:38.913Z,2.49
2023-01-31T03:10:20.656Z,2.52
2023-01-31T03:12:58.455Z,2.67
2023-01-31T03:15:57.217Z,2.59
2023-01-31T03:18:29.080Z,2.54
2023-01-31T03:21:03.456Z,2.50
2023-01-31T03:23:34.613Z,2.49
2023-01-31T03:26:04.461Z,2.46
2023-01-31T03:28:36.232Z,2.40
2023-01-31T03:31:08.222Z,2.55
2023-01-31T03:33:39.419Z,2.38
2023-01-31T03:36:18.941Z,2.35
2023-01-31T03:38:55.484Z,2.32
2023-01-31T03:41:29.949Z,2.35
2023-01-31T03:44:02.591Z,2.48
2023-01-31T03:46:36.174Z,2.33
2023-01-31T03:49:08.885Z,2.33
2023-01-31T03:51:41.826Z,2.24
2023-01-31T03:54:13.990Z,2.27
2023-01-31T03:56:45.207Z,2.30
2023-01-31T03:59:16.598Z,2.26
2023-01-31T04:01:48.513Z,2.13
2023-01-31T04:04:22.247Z,2.18
2023-01-31T04:06:51.113Z,2.19
2023-01-31T04:09:18.745Z,2.20
2023-01-31T04:11:50.309Z,2.07
2023-01-31T04:14:18.320Z,2.36
2023-01-31T04:16:46.154Z,2.17
2023-01-31T04:19:13.616Z,2.24
2023-01-31T04:21:41.090Z,2.20
2023-01-31T04:24:10.478Z,2.23
2023-01-31T04:26:38.286Z,2.12
2023-01-31T04:29:05.900Z,2.17
2023-01-31T04:31:33.441Z,2.25
2023-01-31T04:34:00.927Z,2.19
2023-01-31T04:36:28.499Z,2.22
2023-01-31T04:38:55.978Z,2.12
2023-01-31T04:41:24.805Z,2.23
2023-01-31T04:43:52.268Z,2.17
2023-01-31T04:46:20.097Z,2.13
2023-01-31T04:48:47.580Z,2.23
2023-01-31T04:51:15.072Z,2.20
2023-01-31T04:53:44.378Z,2.12
2023-01-31T04:56:12.128Z,2.10
2023-01-31T04:58:41.456Z,2.18
2023-01-31T05:01:09.092Z,2.24
2023-01-31T05:03:36.591Z,2.19
2023-01-31T05:06:04.272Z,2.21
2023-01-31T05:08:31.763Z,2.16
2023-01-31T05:11:02.269Z,2.16
2023-01-31T05:13:32.780Z,2.11
2023-01-31T05:16:01.785Z,2.20
2023-01-31T05:18:29.260Z,2.30
2023-01-31T05:20:56.735Z,2.28
2023-01-31T05:23:24.845Z,2.31
2023-01-31T05:25:52.333Z,2.24
2023-01-31T05:28:19.821Z,2.34
2023-01-31T05:30:47.817Z,2.23
2023-01-31T05:33:16.658Z,2.20
2023-01-31T05:35:44.134Z,2.14
2023-01-31T05:38:11.589Z,2.15
2023-01-31T05:40:39.067Z,2.25
2023-01-31T05:43:06.692Z,2.16
2023-01-31T05:45:34.261Z,2.28
2023-01-31T05:48:02.440Z,2.17
2023-01-31T05:50:31.326Z,2.21
2023-01-31T05:53:00.911Z,2.17
2023-01-31T05:55:28.583Z,2.21
2023-01-31T05:57:56.575Z,2.32
2023-01-31T06:00:24.906Z,2.32
2023-01-31T06:02:52.409Z,2.46
2023-01-31T06:05:20.250Z,2.30
2023-01-31T06:07:49.172Z,2.47
2023-01-31T06:10:16.664Z,2.28
2023-01-31T06:12:44.173Z,2.41
2023-01-31T06:15:12.653Z,2.41
2023-01-31T06:17:40.183Z,2.52
2023-01-31T06:20:08.362Z,2.55
2023-01-31T06:22:36.435Z,2.56
2023-01-31T06:25:06.372Z,2.70
2023-01-31T06:27:34.640Z,2.72
2023-01-31T06:30:02.618Z,2.40
2023-01-31T06:32:30.554Z,2.32
2023-01-31T06:34:58.609Z,2.69
2023-01-31T06:37:26.115Z,2.47
2023-01-31T06:39:53.572Z,2.35
2023-01-31T06:42:22.383Z,2.70
2023-01-31T06:44:49.838Z,2.44
2023-01-31T06:47:17.281Z,2.60
2023-01-31T06:49:44.937Z,2.68
2023-01-31T06:52:14.155Z,2.28
2023-01-31T06:54:42.534Z,2.25
2023-01-31T06:57:09.976Z,2.49
2023-01-31T06:59:38.788Z,2.53
2023-01-31T07:02:06.234Z,2.29
2023-01-31T07:04:33.688Z,2.37
2023-01-31T07:07:01.131Z,2.61
2023-01-31T07:09:28.586Z,2.54
2023-01-31T07:11:56.036Z,2.69
2023-01-31T07:14:23.681Z,2.70
2023-01-31T07:16:52.927Z,2.74
2023-01-31T07:19:20.866Z,2.70
2023-01-31T07:21:49.132Z,2.41
2023-01-31T07:24:17.051Z,2.53
2023-01-31T07:26:44.813Z,2.63
2023-01-31T07:29:12.866Z,2.83
2023-01-31T07:31:40.496Z,3.07
2023-01-31T07:34:09.268Z,3.72
2023-01-31T07:36:36.729Z,3.37
2023-01-31T07:39:04.429Z,3.23
2023-01-31T07:41:32.225Z,3.00
2023-01-31T07:43:59.986Z,3.26
2023-01-31T07:46:27.527Z,3.19
2023-01-31T07:48:54.979Z,2.63
2023-01-31T07:51:23.788Z,3.05
2023-01-31T07:53:51.292Z,3.55
2023-01-31T07:56:20.801Z,3.40
2023-01-31T07:58:50.162Z,3.14
2023-01-31T08:01:37.171Z,3.51
2023-01-31T08:04:19.541Z,3.49
2023-01-31T08:06:51.858Z,3.34
2023-01-31T08:09:19.316Z,3.34
2023-01-31T08:11:47.254Z,3.90
2023-01-31T08:14:14.776Z,4.05
2023-01-31T08:16:42.289Z,4.39
2023-01-31T08:19:09.758Z,5.14
2023-01-31T08:21:37.240Z,6.01
2023-01-31T08:24:06.758Z,5.65
2023-01-31T08:26:34.322Z,6.32
2023-01-31T08:29:02.019Z,6.81
2023-01-31T08:31:29.969Z,6.67
2023-01-31T08:33:57.753Z,6.32
2023-01-31T08:36:27.158Z,5.34
2023-01-31T08:38:55.788Z,3.98
2023-01-31T08:41:26.241Z,4.08
2023-01-31T08:43:57.966Z,3.97
2023-01-31T08:46:28.025Z,3.98
2023-01-31T08:48:55.970Z,3.67
2023-01-31T08:51:24.166Z,3.17
2023-01-31T08:53:51.736Z,2.93
2023-01-31T08:56:21.219Z,3.07
2023-01-31T08:58:50.200Z,2.96
2023-01-31T09:01:19.682Z,3.00
2023-01-31T09:03:50.319Z,3.14
2023-01-31T09:06:20.313Z,3.29
2023-01-31T09:08:47.935Z,3.70
2023-01-31T09:11:18.733Z,3.52
2023-01-31T09:13:47.046Z,3.56
2023-01-31T09:16:16.358Z,3.55
2023-01-31T09:18:44.072Z,3.43
2023-01-31T09:21:13.723Z,3.51
2023-01-31T09:23:42.848Z,3.66
2023-01-31T09:26:11.644Z,3.60
2023-01-31T09:28:42.176Z,3.66
2023-01-31T09:31:11.703Z,3.43
2023-01-31T09:33:40.964Z,3.67
2023-01-31T09:36:10.578Z,3.92
2023-01-31T09:38:38.630Z,3.87
2023-01-31T09:41:11.789Z,4.04
2023-01-31T09:43:44.405Z,4.27
2023-01-31T09:46:16.613Z,3.91
2023-01-31T09:48:52.080Z,4.08
2023-01-31T09:51:20.369Z,3.99
2023-01-31T09:53:48.523Z,3.74
2023-01-31T09:56:25.500Z,4.43
2023-01-31T09:59:00.589Z,4.51
2023-01-31T10:01:33.094Z,4.36
2023-01-31T10:04:10.161Z,4.31
2023-01-31T10:06:46.032Z,4.95
2023-01-31T10:09:21.440Z,4.49
2023-01-31T10:11:52.270Z,4.14
2023-01-31T10:14:29.368Z,4.14
2023-01-31T10:17:07.885Z,3.42
2023-01-31T10:19:45.665Z,3.69
2023-01-31T10:22:19.195Z,3.85
2023-01-31T10:24:53.128Z,4.07
2023-01-31T10:27:36.604Z,3.77
2023-01-31T10:30:08.988Z,3.84
2023-01-31T10:32:42.097Z,3.93
2023-01-31T10:35:17.397Z,3.74
2023-01-31T10:37:48.689Z,3.93
2023-01-31T10:40:18.412Z,4.26
2023-01-31T10:42:50.629Z,3.73
2023-01-31T10:45:20.600Z,3.92
2023-01-31T10:47:52.109Z,4.08
2023-01-31T10:50:30.150Z,3.93
2023-01-31T10:53:12.235Z,4.02
2023-01-31T10:55:54.335Z,3.77
2023-01-31T10:58:24.324Z,3.70
2023-01-31T11:00:52.255Z,3.83
2023-01-31T11:03:19.926Z,3.65
2023-01-31T11:05:51.538Z,3.80
2023-01-31T11:08:27.016Z,4.19
2023-01-31T11:10:56.429Z,4.55
2023-01-31T11:13:24.372Z,4.41
2023-01-31T11:15:55.504Z,4.51
2023-01-31T11:18:30.275Z,4.47
2023-01-31T11:20:59.900Z,4.57
2023-01-31T11:23:30.718Z,4.49
2023-01-31T11:25:58.561Z,4.66
2023-01-31T11:28:35.391Z,4.94
2023-01-31T11:31:05.661Z,5.18
2023-01-31T11:33:45.817Z,5.24
2023-01-31T11:36:17.380Z,5.11
2023-01-31T11:38:44.865Z,5.13
2023-01-31T11:41:32.185Z,5.01
2023-01-31T11:44:15.317Z,5.06
2023-01-31T11:46:49.448Z,5.38
2023-01-31T11:49:24.218Z,5.44
2023-01-31T11:51:53.356Z,5.48
2023-01-31T11:54:23.016Z,5.70
2023-01-31T11:56:50.572Z,5.73
2023-01-31T11:59:22.905Z,5.49
2023-01-31T12:01:53.126Z,5.38
2023-01-31T12:04:24.854Z,5.70
2023-01-31T12:07:03.656Z,5.38
2023-01-31T12:09:42.072Z,5.71
2023-01-31T12:12:24.081Z,4.78
2023-01-31T12:14:51.607Z,4.54
2023-01-31T12:17:20.629Z,5.06
2023-01-31T12:20:01.915Z,4.99
2023-01-31T12:22:36.955Z,3.95
2023-01-31T12:25:15.853Z,3.75
2023-01-31T12:28:01.352Z,3.86
2023-01-31T12:30:46.344Z,3.95
2023-01-31T12:33:30.407Z,4.09
2023-01-31T12:36:10.347Z,4.43
2023-01-31T12:38:56.502Z,4.44
2023-01-31T12:41:32.682Z,4.34
2023-01-31T12:44:16.050Z,4.24
2023-01-31T12:47:09.934Z,4.13
2023-01-31T12:49:52.943Z,4.47
2023-01-31T12:52:29.393Z,4.63
2023-01-31T12:55:12.277Z,4.85
2023-01-31T12:57:48.644Z,5.00
2023-01-31T13:00:28.723Z,5.05
2023-01-31T13:03:20.740Z,5.26
2023-01-31T13:05:53.042Z,4.84
2023-01-31T13:08:23.998Z,5.05
2023-01-31T13:10:57.989Z,4.29
2023-01-31T13:13:27.470Z,4.24
2023-01-31T13:15:59.579Z,4.22
2023-01-31T13:18:27.480Z,4.12
2023-01-31T13:20:58.947Z,4.29
2023-01-31T13:23:32.289Z,4.37
2023-01-31T13:26:08.619Z,4.13
2023-01-31T13:28:41.604Z,4.19
2023-01-31T13:31:16.695Z,4.02
2023-01-31T13:33:48.670Z,4.44
2023-01-31T13:36:25.332Z,4.45
2023-01-31T13:38:53.334Z,4.03
2023-01-31T13:41:29.141Z,4.03
2023-01-31T13:43:58.366Z,3.68
2023-01-31T13:46:30.600Z,3.71
2023-01-31T13:49:02.665Z,4.01
2023-01-31T13:51:38.505Z,3.71
2023-01-31T13:54:13.194Z,3.79
2023-01-31T13:56:42.719Z,3.84
2023-01-31T13:59:11.930Z,4.10
2023-01-31T14:01:46.714Z,3.91
2023-01-31T14:04:38.373Z,3.92
2023-01-31T14:07:21.097Z,4.41
2023-01-31T14:10:37.786Z,4.06
2023-01-31T14:13:27.518Z,3.92
2023-01-31T14:15:57.140Z,3.69
2023-01-31T14:18:44.371Z,3.67
2023-01-31T14:21:53.535Z,3.70
2023-01-31T14:24:37.512Z,3.59
2023-01-31T14:27:15.378Z,3.45
2023-01-31T14:29:45.056Z,3.61
2023-01-31T14:32:17.507Z,3.72
2023-01-31T14:34:49.893Z,3.55
2023-01-31T14:37:31.902Z,3.45
2023-01-31T14:40:24.473Z,3.54
2023-01-31T14:43:20.146Z,3.60
2023-01-31T14:46:22.008Z,3.64
2023-01-31T14:49:09.565Z,3.46
2023-01-31T14:51:49.959Z,3.76
2023-01-31T14:54:41.314Z,3.63
2023-01-31T14:57:16.312Z,3.60
2023-01-31T14:59:55.719Z,3.75
2023-01-31T15:02:43.860Z,3.99
2023-01-31T15:05:14.219Z,3.88
2023-01-31T15:08:08.049Z,3.76
2023-01-31T15:10:55.399Z,3.81
2023-01-31T15:13:47.054Z,3.63
2023-01-31T15:16:21.569Z,3.52
2023-01-31T15:18:55.329Z,3.45
2023-01-31T15:21:27.245Z,3.50
2023-01-31T15:23:56.119Z,3.50
2023-01-31T15:26:25.697Z,3.40
2023-01-31T15:28:53.843Z,3.50
2023-01-31T15:31:25.907Z,3.36
2023-01-31T15:33:59.840Z,3.38
2023-01-31T15:36:31.423Z,3.50
2023-01-31T15:39:03.708Z,3.53
2023-01-31T15:41:39.102Z,3.56
2023-01-31T15:44:17.466Z,3.76
2023-01-31T15:46:47.078Z,4.00
2023-01-31T15:49:38.937Z,4.04
2023-01-31T15:52:13.398Z,3.86
2023-01-31T15:54:41.272Z,4.11
2023-01-31T15:57:16.190Z,3.92
2023-01-31T15:59:47.819Z,3.93
2023-01-31T16:02:22.147Z,3.95
2023-01-31T16:04:51.043Z,3.65
2023-01-31T16:07:19.321Z,3.72
2023-01-31T16:09:47.485Z,3.84
2023-01-31T16:12:17.056Z,3.88
2023-01-31T16:14:50.744Z,3.66
2023-01-31T16:17:19.496Z,3.73
2023-01-31T16:19:51.845Z,3.55
2023-01-31T16:22:25.643Z,3.53
2023-01-31T16:24:54.700Z,3.33
2023-01-31T16:27:22.767Z,3.44
2023-01-31T16:29:53.319Z,3.56
2023-01-31T16:32:24.052Z,3.26
2023-01-31T16:34:59.241Z,3.32
2023-01-31T16:37:32.520Z,3.49
2023-01-31T16:40:03.453Z,3.27
2023-01-31T16:42:33.201Z,3.53
2023-01-31T16:45:00.757Z,3.35
2023-01-31T16:47:47.870Z,3.39
2023-01-31T16:50:43.054Z,3.33
2023-01-31T16:53:26.194Z,3.24
2023-01-31T16:56:21.896Z,3.26
2023-01-31T16:58:52.597Z,3.35
2023-01-31T17:01:23.100Z,3.36
2023-01-31T17:04:16.776Z,3.13
2023-01-31T17:06:50.585Z,2.94
2023-01-31T17:09:22.865Z,2.94
2023-01-31T17:11:50.654Z,2.82
2023-01-31T17:14:18.144Z,2.74
2023-01-31T17:16:46.944Z,2.73
2023-01-31T17:19:14.651Z,2.63
2023-01-31T17:21:43.117Z,2.51
2023-01-31T17:24:14.479Z,2.40
2023-01-31T17:26:42.004Z,2.45
2023-01-31T17:29:09.527Z,2.27
2023-01-31T17:31:37.184Z,2.53
2023-01-31T17:34:06.163Z,2.40
2023-01-31T17:36:33.612Z,2.52
2023-01-31T17:39:01.048Z,2.73
2023-01-31T17:41:30.854Z,2.68
2023-01-31T17:43:58.308Z,2.67
2023-01-31T17:46:25.839Z,2.51
2023-01-31T17:48:53.310Z,2.42
2023-01-31T17:51:20.806Z,2.81
2023-01-31T17:53:50.239Z,2.78
2023-01-31T17:56:18.777Z,2.86
2023-01-31T17:58:49.183Z,2.88
2023-01-31T18:01:16.719Z,2.73
2023-01-31T18:03:44.958Z,2.60
2023-01-31T18:06:12.504Z,2.54
2023-01-31T18:08:40.095Z,2.45
2023-01-31T18:11:09.000Z,2.69
2023-01-31T18:13:38.021Z,2.47
2023-01-31T18:16:09.294Z,2.35
2023-01-31T18:18:37.182Z,2.38
2023-01-31T18:21:06.097Z,2.45
2023-01-31T18:23:33.555Z,2.37
2023-01-31T18:26:01.078Z,2.05
2023-01-31T18:28:28.565Z,2.00
2023-01-31T18:30:56.177Z,2.03
2023-01-31T18:33:24.992Z,2.09
2023-01-31T18:35:57.252Z,2.15
2023-01-31T18:38:24.946Z,2.23
2023-01-31T18:40:52.582Z,2.17
2023-01-31T18:43:20.331Z,2.18
2023-01-31T18:45:48.292Z,2.15
2023-01-31T18:48:15.897Z,2.19
2023-01-31T18:50:44.810Z,2.15
2023-01-31T18:53:12.314Z,2.10
2023-01-31T18:55:39.779Z,2.34
2023-01-31T18:58:07.259Z,2.36
2023-01-31T19:00:34.870Z,2.31
2023-01-31T19:03:02.328Z,2.17
2023-01-31T19:05:30.502Z,2.23
2023-01-31T19:07:59.268Z,2.28
2023-01-31T19:10:26.739Z,2.38
2023-01-31T19:12:54.225Z,2.53
2023-01-31T19:15:21.993Z,2.38
2023-01-31T19:17:49.715Z,2.70
2023-01-31T19:20:17.327Z,2.78
2023-01-31T19:22:44.772Z,2.75
2023-01-31T19:25:13.620Z,2.60
2023-01-31T19:27:41.390Z,2.61
2023-01-31T19:30:10.321Z,2.36
2023-01-31T19:32:37.805Z,2.55
2023-01-31T19:35:05.816Z,2.68
2023-01-31T19:37:33.299Z,2.79
2023-01-31T19:40:01.933Z,2.81
2023-01-31T19:42:31.372Z,2.62
2023-01-31T19:44:58.846Z,2.82
2023-01-31T19:47:26.306Z,2.93
2023-01-31T19:49:53.777Z,2.73
2023-01-31T19:52:21.312Z,2.88
2023-01-31T19:54:48.788Z,2.93
2023-01-31T19:57:16.253Z,2.66
2023-01-31T19:59:45.197Z,2.86
2023-01-31T20:02:12.954Z,3.05
2023-01-31T20:04:40.531Z,2.96
2023-01-31T20:07:08.040Z,2.90
2023-01-31T20:09:35.544Z,3.04
2023-01-31T20:12:03.116Z,3.15
2023-01-31T20:14:30.612Z,2.99
2023-01-31T20:16:59.463Z,3.10
2023-01-31T20:19:27.544Z,3.08
2023-01-31T20:21:55.042Z,3.02
2023-01-31T20:24:22.506Z,2.99
2023-01-31T20:26:50.043Z,2.96
2023-01-31T20:29:17.538Z,2.87
2023-01-31T20:31:45.157Z,2.81
2023-01-31T20:34:13.979Z,2.96
2023-01-31T20:36:41.423Z,2.90
2023-01-31T20:39:09.008Z,3.07
2023-01-31T20:41:38.378Z,3.33
2023-01-31T20:44:06.215Z,3.61
2023-01-31T20:46:33.685Z,3.34
2023-01-31T20:49:01.113Z,3.39
2023-01-31T20:51:29.905Z,3.55
2023-01-31T20:53:58.811Z,3.59
2023-01-31T20:56:26.263Z,3.39
2023-01-31T20:58:53.722Z,3.71
2023-01-31T21:01:21.260Z,3.41
2023-01-31T21:03:48.735Z,3.34
2023-01-31T21:06:16.192Z,3.48
2023-01-31T21:08:46.650Z,3.29
2023-01-31T21:11:15.842Z,3.53
2023-01-31T21:13:44.036Z,3.49
2023-01-31T21:16:12.905Z,3.59
2023-01-31T21:18:43.917Z,3.45
2023-01-31T21:21:13.971Z,3.03
2023-01-31T21:23:42.243Z,3.23
2023-01-31T21:26:12.403Z,3.16
2023-01-31T21:28:40.758Z,3.36
2023-01-31T21:31:12.400Z,3.32
2023-01-31T21:33:40.069Z,3.22
2023-01-31T21:36:08.584Z,3.35
2023-01-31T21:38:36.080Z,3.20
2023-01-31T21:41:21.456Z,3.08
2023-01-31T21:43:50.295Z,3.25
2023-01-31T21:46:18.267Z,3.08
2023-01-31T21:48:45.910Z,3.45
2023-01-31T21:51:15.726Z,3.47
2023-01-31T21:53:43.995Z,3.63
2023-01-31T21:56:13.438Z,3.80
2023-01-31T21:58:41.982Z,3.25
2023-01-31T22:01:12.675Z,3.54
2023-01-31T22:03:42.886Z,3.50
2023-01-31T22:06:12.096Z,3.36
2023-01-31T22:08:40.400Z,3.50
2023-01-31T22:11:09.108Z,3.56
2023-01-31T22:13:37.493Z,3.30
2023-01-31T22:16:08.505Z,3.26
2023-01-31T22:18:38.263Z,3.20
2023-01-31T22:21:07.690Z,3.35
2023-01-31T22:23:36.835Z,3.28
2023-01-31T22:26:06.423Z,3.11
2023-01-31T22:28:34.793Z,3.10
2023-01-31T22:31:03.212Z,3.39
2023-01-31T22:33:31.583Z,3.30
2023-01-31T22:36:00.498Z,3.36
2023-01-31T22:38:28.788Z,3.66
2023-01-31T22:40:58.543Z,3.55
2023-01-31T22:43:26.456Z,3.52
2023-01-31T22:45:55.802Z,3.41
2023-01-31T22:48:24.786Z,3.47
2023-01-31T22:50:56.666Z,3.34
2023-01-31T22:53:26.349Z,3.18
2023-01-31T22:55:54.151Z,3.41
2023-01-31T22:58:22.463Z,3.52
2023-01-31T23:00:49.965Z,3.62
2023-01-31T23:03:17.444Z,3.54
2023-01-31T23:05:45.267Z,3.35
2023-01-31T23:08:13.718Z,3.39
2023-01-31T23:10:42.999Z,3.45
2023-01-31T23:13:10.992Z,3.74
2023-01-31T23:15:40.002Z,3.57
2023-01-31T23:18:07.704Z,3.45
2023-01-31T23:20:35.351Z,3.40
2023-01-31T23:23:02.824Z,3.62
2023-01-31T23:25:30.571Z,3.65
2023-01-31T23:28:00.567Z,3.46
2023-01-31T23:30:28.079Z,3.36
2023-01-31T23:32:55.582Z,3.47
2023-01-31T23:35:23.062Z,3.66
2023-01-31T23:37:50.606Z,3.42
2023-01-31T23:40:18.344Z,3.43
2023-01-31T23:42:45.855Z,3.33
2023-01-31T23:45:14.667Z,3.24
2023-01-31T23:47:44.557Z,3.27
2023-01-31T23:50:12.565Z,3.40
2023-01-31T23:52:40.122Z,3.71
2023-01-31T23:55:08.918Z,3.57
2023-01-31T23:57:36.521Z,3.53
